Time;durP1;ratioP1;P1;durP2;ratioP2;P2;SDS_P1;SDS_P2;PMS_P1;PMS_P2;Temp;Humidity;BMP_temperature;BMP_pressure;BME280_temperature;BME280_humidity;BME280_pressure;Samples;Min_cycle;Max_cycle;Signal;HPM_P1;HPM_P2
2023/07/28 00:01:15;;;;;;;;;;;21.50;95.80;;;21.71;58.56;97950.66;4976081;28;123862;-76
2023/07/28 00:03:42;;;;;;;;;;;21.50;95.80;;;21.69;58.60;97964.34;4958386;28;119841;-76
2023/07/28 00:06:08;;;;;;;;;;;21.50;95.80;;;21.68;58.25;97957.91;4981868;28;119340;-77
2023/07/28 00:08:34;;;;;;;;;;;21.40;95.70;;;21.68;58.30;97951.47;4977955;28;124225;-76
2023/07/28 00:11:01;;;;;;;;;;;21.40;95.70;;;21.66;58.62;97956.72;4987291;28;123809;-77
2023/07/28 00:13:27;;;;;;;;;;;21.40;95.70;;;21.64;58.19;97954.28;4970874;28;120199;-76
2023/07/28 00:15:53;;;;;;;;;;;21.40;95.70;;;21.62;58.15;97959.53;4974019;28;119090;-76
2023/07/28 00:18:21;;;;;;;;;;;21.40;95.70;;;21.61;57.93;97957.94;4978097;28;123964;-77
2023/07/28 00:20:50;;;;;;;;;;;21.30;95.50;;;21.58;57.76;97951.09;4986224;28;124150;-76
2023/07/28 00:23:16;;;;;;;;;;;21.30;95.40;;;21.56;57.73;97956.31;4984314;28;119470;-76
2023/07/28 00:25:45;;;;;;;;;;;21.30;95.30;;;21.54;57.72;97958.75;4983267;28;118902;-75
2023/07/28 00:28:11;;;;;;;;;;;21.30;95.20;;;21.52;57.30;97946.28;4983290;28;124014;-76
2023/07/28 00:30:37;;;;;;;;;;;21.30;95.10;;;21.48;57.40;97960.38;4984343;28;125104;-78
2023/07/28 00:33:04;;;;;;;;;;;21.30;95.10;;;21.48;57.33;97948.34;4985091;28;119624;-77
2023/07/28 00:35:32;;;;;;;;;;;21.20;95.00;;;21.48;57.63;97951.16;4985306;28;118462;-76
2023/07/28 00:37:58;;;;;;;;;;;21.20;95.00;;;21.48;57.26;97949.13;4985773;28;123187;-76
2023/07/28 00:40:25;;;;;;;;;;;21.20;95.10;;;21.46;57.58;97945.91;4983346;28;123535;-78
2023/07/28 00:42:51;;;;;;;;;;;21.30;95.10;;;21.45;57.60;97946.34;4984671;28;119406;-77
2023/07/28 00:45:17;;;;;;;;;;;21.20;95.00;;;21.41;57.45;97949.13;4984976;28;119217;-75
2023/07/28 00:47:44;;;;;;;;;;;21.20;95.00;;;21.38;57.18;97942.31;4984255;28;124785;-76
2023/07/28 00:50:13;;;;;;;;;;;21.20;94.90;;;21.36;57.57;97941.91;4981182;28;123801;-75
2023/07/28 00:52:39;;;;;;;;;;;21.20;95.00;;;21.34;57.24;97935.91;4982993;28;120520;-75
2023/07/28 00:55:06;;;;;;;;;;;21.10;94.90;;;21.33;57.40;97942.72;4965952;28;119740;-75
2023/07/28 00:57:33;;;;;;;;;;;21.10;94.90;;;21.30;57.63;97943.50;4960088;28;123540;-75
2023/07/28 01:00:00;;;;;;;;;;;21.10;94.90;;;21.27;57.57;97938.72;4983964;28;123909;-75
2023/07/28 01:02:28;;;;;;;;;;;21.10;94.90;;;21.23;57.55;97937.13;4982126;28;119460;-75
2023/07/28 01:04:55;;;;;;;;;;;21.00;94.90;;;21.20;57.71;97938.75;4976207;28;118690;-75
2023/07/28 01:07:27;;;;;;;;;;;21.00;94.90;;;21.17;57.60;97933.91;4990939;28;124164;-75
2023/07/28 01:10:06;;;;;;;;;;;21.00;95.00;;;21.11;57.83;97941.94;4977161;28;122650;-75
2023/07/28 01:12:34;;;;;;;;;;;20.90;95.00;;;21.08;57.76;97948.38;4983663;28;120166;-75
2023/07/28 01:15:02;;;;;;;;;;;20.90;95.00;;;21.06;57.77;97936.75;4979359;28;118455;-75
2023/07/28 01:17:28;;;;;;;;;;;20.90;95.10;;;21.03;58.24;97943.16;4970458;28;124292;-78
2023/07/28 01:19:54;;;;;;;;;;;20.80;95.10;;;20.99;58.05;97936.78;4972560;28;123849;-79
2023/07/28 01:22:52;;;;;;;;;;;20.80;95.20;;;20.96;58.26;97931.97;4977897;28;119317;-75
2023/07/28 01:25:21;;;;;;;;;;;20.70;95.20;;;20.92;58.17;97929.16;4976147;28;118591;-78
2023/07/28 01:27:48;;;;;;;;;;;20.70;95.30;;;20.90;58.12;97930.75;4990466;28;125461;-78
2023/07/28 01:30:15;;;;;;;;;;;20.70;95.30;;;20.91;58.67;97933.16;4970855;28;122853;-77
2023/07/28 01:32:43;;;;;;;;;;;20.70;95.40;;;20.91;58.31;97940.78;4977659;28;119391;-78
2023/07/28 01:35:10;;;;;;;;;;;20.70;95.40;;;20.91;58.54;97927.56;4971360;28;118954;-78
2023/07/28 01:37:39;;;;;;;;;;;20.70;95.50;;;20.91;58.68;97926.75;4985918;28;124936;-82
2023/07/28 01:40:06;;;;;;;;;;;20.70;95.50;;;20.89;58.50;97921.53;4990891;28;123595;-81
2023/07/28 01:42:32;;;;;;;;;;;20.70;95.50;;;20.89;58.48;97929.16;4958265;28;120610;-78
2023/07/28 01:45:00;;;;;;;;;;;20.70;95.60;;;20.88;58.87;97924.75;4987413;28;119290;-78
2023/07/28 01:47:29;;;;;;;;;;;20.70;95.60;;;20.86;58.72;97927.16;4972411;28;123300;-75
2023/07/28 01:49:55;;;;;;;;;;;20.60;95.60;;;20.86;58.73;97913.13;4985825;28;123937;-77
2023/07/28 01:52:24;;;;;;;;;;;20.60;95.60;;;20.85;58.58;97906.72;4985763;28;119332;-78
2023/07/28 01:54:50;;;;;;;;;;;20.60;95.60;;;20.84;58.57;97907.09;4986940;28;118403;-78
2023/07/28 01:57:17;;;;;;;;;;;20.60;95.60;;;20.85;58.96;97917.16;4988822;28;123894;-76
2023/07/28 01:59:43;;;;;;;;;;;20.60;95.70;;;20.86;58.80;97901.88;4988100;28;123856;-78
2023/07/28 02:02:16;;;;;;;;;;;20.60;95.70;;;20.86;59.00;97907.50;4984602;28;119521;-76
2023/07/28 02:04:43;;;;;;;;;;;20.60;95.60;;;20.86;58.88;97901.88;4987157;28;118787;-77
2023/07/28 02:07:09;;;;;;;;;;;20.60;95.60;;;20.87;58.77;97903.47;4971405;28;123521;-77
2023/07/28 02:09:37;;;;;;;;;;;20.60;95.60;;;20.89;58.77;97906.69;4973563;28;123247;-76
2023/07/28 02:12:06;;;;;;;;;;;20.70;95.70;;;20.90;58.79;97897.06;4972186;28;119074;-76
2023/07/28 02:14:33;;;;;;;;;;;20.60;95.70;;;20.90;58.67;97891.44;4989229;28;118330;-76
2023/07/28 02:16:59;;;;;;;;;;;20.70;95.70;;;20.92;58.68;97894.66;4986533;28;124714;-76
2023/07/28 02:19:25;;;;;;;;;;;20.70;95.70;;;20.93;59.03;97890.66;4985641;28;124506;-76
2023/07/28 02:21:54;;;;;;;;;;;20.70;95.70;;;20.94;58.72;97887.44;4987692;28;119391;-77
2023/07/28 02:24:20;;;;;;;;;;;20.70;95.70;;;20.98;58.55;97881.00;4979326;28;118561;-76
2023/07/28 02:26:46;;;;;;;;;;;20.70;95.70;;;20.99;58.58;97886.22;4985896;28;124121;-76
2023/07/28 02:29:12;;;;;;;;;;;20.70;95.70;;;21.00;58.59;97901.84;4986416;28;124143;-77
2023/07/28 02:31:41;;;;;;;;;;;20.80;95.80;;;21.00;58.84;97904.66;4985943;28;120769;-77
2023/07/28 02:34:07;;;;;;;;;;;20.70;95.70;;;21.03;58.77;97909.47;4986718;28;119088;-77
2023/07/28 02:36:34;;;;;;;;;;;20.70;95.70;;;21.02;58.58;97910.69;4978965;28;123891;-77
2023/07/28 02:39:02;;;;;;;;;;;20.70;95.70;;;21.01;58.59;97911.91;4986034;28;123707;-79
2023/07/28 02:41:28;;;;;;;;;;;20.70;95.70;;;21.01;58.65;97917.53;4986447;28;119029;-76
2023/07/28 02:44:03;;;;;;;;;;;20.70;95.70;;;21.02;58.60;97923.94;4986215;28;118529;-76
2023/07/28 02:46:33;;;;;;;;;;;20.70;95.70;;;21.02;58.58;97921.13;4985120;28;123829;-76
2023/07/28 02:49:33;;;;;;;;;;;20.80;95.80;;;21.02;58.94;97921.13;4984438;28;123914;-77
2023/07/28 02:55:31;;;;;;;;;;;20.70;95.80;;;20.99;59.04;97944.41;4975702;28;119203;-76
2023/07/28 02:57:58;;;;;;;;;;;20.70;95.80;;;20.98;59.05;97935.16;4966268;28;124094;-77
2023/07/28 03:00:47;;;;;;;;;;;20.70;95.90;;;20.99;59.05;97948.00;4980063;28;124123;-77
2023/07/28 03:03:16;;;;;;;;;;;20.70;95.90;;;20.99;58.91;97950.03;4982460;28;119797;-76
2023/07/28 03:06:35;;;;;;;;;;;20.70;96.00;;;20.97;59.01;97958.84;4985608;28;118681;-76
2023/07/28 03:09:01;;;;;;;;;;;20.70;96.00;;;20.92;59.22;97968.47;4989031;28;126214;-76
2023/07/28 03:11:49;;;;;;;;;;;20.60;96.10;;;20.86;59.54;97960.84;4984907;28;124397;-75
2023/07/28 03:14:19;;;;;;;;;;;20.60;96.20;;;20.82;59.96;97974.06;4986035;28;120134;-76
2023/07/28 03:16:45;;;;;;;;;;;20.60;96.60;;;20.76;59.76;97970.06;4986131;28;118775;-76
2023/07/28 03:20:08;;;;;;;;;;;20.50;96.30;;;20.72;59.84;97965.25;4984914;28;124116;-76
2023/07/28 03:22:55;;;;;;;;;;;20.50;96.30;;;20.72;59.79;97978.50;4985451;28;123981;-76
2023/07/28 03:25:25;;;;;;;;;;;20.50;96.40;;;20.74;59.84;97971.28;4986440;28;120025;-76
2023/07/28 03:27:52;;;;;;;;;;;20.50;96.40;;;20.78;60.11;97974.09;4984559;28;120237;-76
2023/07/28 03:30:27;;;;;;;;;;;20.50;96.40;;;20.79;60.06;97975.69;4988286;28;124382;-77
2023/07/28 03:32:54;;;;;;;;;;;20.50;96.40;;;20.80;60.14;97987.75;4983634;28;124630;-77
2023/07/28 03:35:22;;;;;;;;;;;20.50;96.50;;;20.79;59.92;97992.53;4983464;28;119241;-76
2023/07/28 03:37:57;;;;;;;;;;;20.50;96.50;;;20.79;60.24;98000.94;4985480;28;118898;-76
2023/07/28 03:40:33;;;;;;;;;;;20.50;96.50;;;20.82;59.90;98014.22;4984430;28;122907;-77
2023/07/28 03:43:40;;;;;;;;;;;20.50;96.50;;;20.80;59.86;98015.81;4973902;28;124066;-76
2023/07/28 03:46:09;;;;;;;;;;;20.50;96.50;;;20.75;59.79;98014.19;4969870;28;119396;-76
2023/07/28 03:48:35;;;;;;;;;;;20.50;96.50;;;20.72;59.74;98027.03;4982756;28;118571;-76
2023/07/28 03:51:38;;;;;;;;;;;20.60;96.50;;;20.66;60.17;98020.22;4980362;28;124919;-77
2023/07/28 03:54:08;;;;;;;;;;;20.40;96.40;;;20.67;59.82;98024.63;4971122;28;123258;-76
2023/07/28 03:56:52;;;;;;;;;;;20.40;96.40;;;20.64;59.79;98019.00;4985326;28;119613;-77
2023/07/28 04:00:13;;;;;;;;;;;20.40;96.40;;;20.60;59.76;98023.78;4982037;28;118456;-77
2023/07/28 04:02:52;;;;;;;;;;;20.40;96.40;;;20.59;59.94;98017.38;4962674;28;123894;-77
2023/07/28 04:05:21;;;;;;;;;;;20.40;96.40;;;20.59;60.29;98017.38;4961960;28;122975;-77
2023/07/28 04:07:52;;;;;;;;;;;20.40;96.40;;;20.59;60.27;98023.00;4984738;28;119394;-76
2023/07/28 04:10:33;;;;;;;;;;;20.40;96.40;;;20.59;60.30;98017.38;4969642;28;117856;-77
2023/07/28 04:13:05;;;;;;;;;;;20.40;96.40;;;20.62;60.19;98027.00;4967412;28;124193;-76
2023/07/28 04:15:32;;;;;;;;;;;20.40;96.40;;;20.63;60.21;98029.44;4966006;28;123903;-76
2023/07/28 04:17:58;;;;;;;;;;;20.40;96.40;;;20.66;59.91;98019.38;4981658;28;120275;-77
2023/07/28 04:20:24;;;;;;;;;;;20.40;96.40;;;20.69;60.03;98013.78;4951652;28;118676;-77
2023/07/28 04:23:12;;;;;;;;;;;20.40;96.50;;;20.71;59.77;98008.59;4957185;28;124655;-78
2023/07/28 04:25:51;;;;;;;;;;;20.40;96.50;;;20.74;59.87;98001.38;4959649;28;123861;-76
2023/07/28 04:28:24;;;;;;;;;;;20.50;96.50;;;20.78;59.92;98004.97;4931057;28;120705;-78
2023/07/28 04:30:53;;;;;;;;;;;20.40;96.50;;;20.81;59.60;98003.38;4944793;28;119491;-76
2023/07/28 04:33:19;;;;;;;;;;;20.50;96.50;;;20.82;59.60;97991.75;4930339;28;123583;-76
2023/07/28 04:36:04;;;;;;;;;;;20.50;96.50;;;20.84;59.72;97985.72;4945041;28;123858;-77
2023/07/28 04:38:45;;;;;;;;;;;20.50;96.50;;;20.86;59.62;97991.75;4926310;28;117406;-77
2023/07/28 04:41:14;;;;;;;;;;;20.50;96.50;;;20.87;59.81;97980.09;4923756;28;119053;-77
2023/07/28 04:43:56;;;;;;;;;;;20.60;96.60;;;20.88;59.54;97984.53;4942143;28;124552;-77
2023/07/28 04:46:38;;;;;;;;;;;20.60;96.60;;;20.91;59.87;97977.31;4932909;28;123503;-77
2023/07/28 04:49:04;;;;;;;;;;;20.60;96.60;;;20.93;59.71;97986.94;4948450;28;119818;-77
2023/07/28 04:51:39;;;;;;;;;;;20.60;96.70;;;21.00;59.96;97991.72;4948999;28;118568;-78
2023/07/28 04:54:15;;;;;;;;;;;20.60;96.80;;;21.03;59.94;97996.53;4948745;28;123536;-78
2023/07/28 04:57:00;;;;;;;;;;;20.70;96.80;;;21.05;60.03;98001.75;4946788;28;122956;-79
2023/07/28 04:59:36;;;;;;;;;;;20.70;96.80;;;21.06;60.28;98001.34;4926477;28;118756;-79
2023/07/28 05:02:33;;;;;;;;;;;20.70;96.80;;;21.06;60.25;98001.34;4956903;28;119712;-79
2023/07/28 05:05:44;;;;;;;;;;;20.70;96.90;;;21.08;59.93;98000.94;4935186;28;123835;-78
2023/07/28 05:08:14;;;;;;;;;;;20.70;96.90;;;21.09;60.22;98011.81;4934081;28;122765;-78
2023/07/28 05:10:51;;;;;;;;;;;20.70;97.00;;;21.09;60.39;98022.22;4944092;28;120447;-77
2023/07/28 05:13:17;;;;;;;;;;;20.80;97.10;;;21.07;60.48;98014.19;4968136;28;119847;-76
2023/07/28 05:15:56;;;;;;;;;;;20.80;97.10;;;21.08;60.75;98026.25;4964921;28;124179;-76
2023/07/28 05:18:37;;;;;;;;;;;20.70;97.10;;;21.07;60.78;98022.63;4936027;28;123495;-77
2023/07/28 05:21:06;;;;;;;;;;;20.70;97.10;;;21.10;60.94;98024.63;4961773;28;118867;-76
2023/07/28 05:23:35;;;;;;;;;;;20.70;97.20;;;21.13;60.91;98021.00;4994969;28;118244;-75
2023/07/28 05:26:38;;;;;;;;;;;20.80;97.30;;;21.17;60.80;98035.06;5007613;28;124070;-80
2023/07/28 05:29:19;;;;;;;;;;;20.80;97.30;;;21.19;60.63;98029.84;5000752;28;124354;-80
2023/07/28 05:35:08;;;;;;;;;;;20.80;97.50;;;21.24;61.19;98035.06;4981122;28;119129;-82
2023/07/28 05:37:37;;;;;;;;;;;20.90;97.60;;;21.27;60.79;98034.25;4949154;28;123815;-80
2023/07/28 05:40:04;;;;;;;;;;;20.90;97.60;;;21.29;61.40;98033.84;4980526;28;123946;-81
2023/07/28 05:42:30;;;;;;;;;;;20.90;97.60;;;21.32;60.98;98042.28;4988060;28;119673;-80
2023/07/28 05:45:03;;;;;;;;;;;20.90;97.70;;;21.33;61.16;98052.31;4971271;28;118984;-81
2023/07/28 05:47:29;;;;;;;;;;;21.00;97.80;;;21.34;61.50;98047.50;4963586;28;124358;-80
2023/07/28 05:50:04;;;;;;;;;;;21.00;97.90;;;21.35;61.68;98049.09;4951118;28;123346;-79
2023/07/28 05:52:30;;;;;;;;;;;21.00;97.90;;;21.34;61.53;98056.72;4960959;28;119670;-78
2023/07/28 05:54:57;;;;;;;;;;;21.00;98.00;;;21.35;61.97;98058.31;4952137;28;118691;-79
2023/07/28 05:57:25;;;;;;;;;;;21.00;98.00;;;21.34;61.74;98056.72;4938932;28;123198;-80
2023/07/28 05:59:54;;;;;;;;;;;21.00;98.10;;;21.35;61.81;98051.91;4956353;28;124700;-79
2023/07/28 06:02:20;;;;;;;;;;;21.00;98.20;;;21.35;62.00;98058.31;4953843;28;120238;-80
2023/07/28 06:04:50;;;;;;;;;;;21.00;98.20;;;21.37;62.23;98052.31;4979689;28;119791;-80
2023/07/28 06:07:16;;;;;;;;;;;21.00;98.30;;;21.38;62.04;98059.56;4972985;28;124870;-80
2023/07/28 06:09:42;;;;;;;;;;;21.10;98.40;;;21.38;62.49;98065.19;4975337;28;124004;-80
2023/07/28 06:12:09;;;;;;;;;;;21.00;98.40;;;21.37;62.51;98072.81;4973199;28;119575;-81
2023/07/28 06:14:38;;;;;;;;;;;21.00;98.40;;;21.36;62.29;98059.94;4980729;28;118981;-80
2023/07/28 06:17:04;;;;;;;;;;;21.10;98.50;;;21.34;62.53;98067.97;4984840;28;124913;-80
2023/07/28 06:19:30;;;;;;;;;;;21.00;98.50;;;21.33;62.62;98066.38;4985891;28;124558;-78
2023/07/28 06:21:57;;;;;;;;;;;21.00;98.50;;;21.30;62.79;98063.53;4986745;28;119356;-79
2023/07/28 06:24:26;;;;;;;;;;;21.00;98.60;;;21.29;63.03;98059.13;4990336;28;118467;-79
2023/07/28 06:26:52;;;;;;;;;;;21.00;98.60;;;21.30;62.72;98071.97;4985188;28;125009;-79
2023/07/28 06:29:21;;;;;;;;;;;21.00;98.70;;;21.30;62.92;98066.34;4964607;28;123297;-80
2023/07/28 06:31:52;;;;;;;;;;;21.00;98.80;;;21.29;62.89;98071.19;4981656;28;120189;-82
2023/07/28 06:34:18;;;;;;;;;;;21.00;98.90;;;21.30;63.33;98074.78;4989041;28;118934;-78
2023/07/28 06:36:44;;;;;;;;;;;21.00;98.90;;;21.28;63.48;98074.38;4984256;28;124219;-81
2023/07/28 06:39:14;;;;;;;;;;;21.00;99.00;;;21.26;63.35;98079.63;4986356;28;124004;-80
2023/07/28 06:41:40;;;;;;;;;;;21.00;99.00;;;21.28;63.39;98080.00;4983983;28;119425;-81
2023/07/28 06:44:08;;;;;;;;;;;21.00;99.00;;;21.27;63.28;98092.44;4985622;28;118955;-80
2023/07/28 06:46:40;;;;;;;;;;;21.00;99.10;;;21.28;63.33;98096.84;4984885;28;124306;-79
2023/07/28 06:49:08;;;;;;;;;;;19.60;98.50;;;21.28;63.36;98091.25;4981787;28;123855;-79
2023/07/28 06:51:37;;;;;;;;;;;21.00;99.10;;;21.28;63.34;98080.81;4964320;28;119522;-79
2023/07/28 06:54:03;;;;;;;;;;;21.00;99.20;;;21.31;63.48;98079.22;4985500;28;120116;-78
2023/07/28 06:56:29;;;;;;;;;;;21.60;99.50;;;21.34;63.76;98087.63;4984973;28;125179;-80
2023/07/28 06:58:56;;;;;;;;;;;21.00;99.20;;;21.36;63.17;98092.88;4984937;28;124380;-77
2023/07/28 07:01:25;;;;;;;;;;;21.00;99.20;;;21.39;63.26;98089.28;4986336;28;118699;-79
2023/07/28 07:03:52;;;;;;;;;;;21.00;99.30;;;21.42;63.20;98096.91;4971781;28;119384;-79
2023/07/28 07:06:18;;;;;;;;;;;21.10;99.30;;;21.43;63.52;98087.25;4984816;28;124376;-78
2023/07/28 07:08:50;;;;;;;;;;;21.10;99.30;;;21.46;63.30;98080.81;4985248;28;124258;-81
2023/07/28 07:11:17;;;;;;;;;;;21.10;99.30;;;21.49;63.24;98096.09;4987913;28;119594;-79
2023/07/28 07:13:43;;;;;;;;;;;21.10;99.60;;;21.50;63.22;98095.69;4984134;28;119648;-77
2023/07/28 07:16:18;;;;;;;;;;;21.10;99.30;;;21.53;62.95;98094.88;4975768;28;124081;-80
2023/07/28 07:18:45;;;;;;;;;;;21.20;99.30;;;21.56;63.23;98102.50;4973103;28;124227;-78
2023/07/28 07:21:14;;;;;;;;;;;21.20;99.30;;;21.59;63.00;98103.72;4985446;28;120128;-78
2023/07/28 07:23:40;;;;;;;;;;;21.20;99.40;;;21.62;63.13;98105.72;4986080;28;118216;-77
2023/07/28 07:26:06;;;;;;;;;;;21.20;99.40;;;21.64;63.00;98108.13;4985752;28;124618;-77
2023/07/28 07:28:34;;;;;;;;;;;21.30;99.40;;;21.68;63.40;98103.28;4985624;28;124719;-78
2023/07/28 07:31:03;;;;;;;;;;;21.30;99.40;;;21.72;63.11;98109.72;4983438;28;118778;-78
2023/07/28 07:33:30;;;;;;;;;;;21.30;99.40;;;21.74;63.12;98108.13;4973938;28;118969;-78
2023/07/28 07:35:57;;;;;;;;;;;21.30;99.40;;;21.76;63.26;98111.34;4984675;28;124267;-78
2023/07/28 07:38:26;;;;;;;;;;;21.20;99.30;;;21.80;63.13;98105.69;4978474;28;124064;-81
2023/07/28 07:40:52;;;;;;;;;;;21.40;99.40;;;21.86;63.08;98106.06;4983116;28;120242;-80
2023/07/28 07:43:20;;;;;;;;;;;21.40;99.40;;;21.91;63.00;98109.28;4984204;28;119592;-81
2023/07/28 07:45:51;;;;;;;;;;;21.50;99.40;;;21.97;62.60;98110.47;4982894;28;125025;-81
2023/07/28 07:48:17;;;;;;;;;;;21.50;99.30;;;21.99;62.23;98113.69;4983270;28;123948;-81
2023/07/28 07:50:43;;;;;;;;;;;21.60;99.20;;;22.00;62.14;98114.47;4980078;28;119286;-79
2023/07/28 07:53:18;;;;;;;;;;;21.60;99.00;;;21.99;62.09;98121.31;4984806;28;119032;-80
2023/07/28 07:55:45;;;;;;;;;;;21.60;98.90;;;22.00;62.31;98120.09;4985136;28;124199;-81
2023/07/28 07:58:15;;;;;;;;;;;21.60;98.80;;;22.02;62.26;98124.13;4986963;28;123558;-78
2023/07/28 08:00:43;;;;;;;;;;;21.70;98.90;;;22.06;62.06;98121.31;4984557;28;119415;-81
2023/07/28 08:03:16;;;;;;;;;;;21.70;98.90;;;22.11;61.90;98117.25;4976557;28;118412;-80
2023/07/28 08:05:42;;;;;;;;;;;20.50;98.30;;;22.13;61.92;98124.09;4981654;28;125533;-80
2023/07/28 08:08:09;;;;;;;;;;;21.80;98.80;;;22.18;61.88;98132.13;4984315;28;124345;-79
2023/07/28 08:10:39;;;;;;;;;;;21.80;98.90;;;22.23;61.60;98128.13;4983611;28;118888;-80
2023/07/28 08:13:05;;;;;;;;;;;21.80;98.90;;;22.25;61.99;98134.16;4984893;28;118901;-79
2023/07/28 08:15:31;;;;;;;;;;;21.90;98.90;;;22.27;61.81;98126.06;4983467;28;124184;-80
2023/07/28 08:18:04;;;;;;;;;;;21.90;98.80;;;22.31;61.49;98137.34;4981419;28;124483;-79
2023/07/28 08:20:30;;;;;;;;;;;21.90;98.80;;;22.34;61.64;98142.94;4976307;28;119324;-80
2023/07/28 08:22:56;;;;;;;;;;;22.00;98.80;;;22.36;61.71;98151.00;4975028;28;118592;-79
2023/07/28 08:25:27;;;;;;;;;;;22.00;99.00;;;22.38;61.76;98148.56;4985093;28;124294;-80
2023/07/28 08:27:55;;;;;;;;;;;22.00;98.70;;;22.41;61.56;98151.38;4982917;28;123921;-80
2023/07/28 08:30:25;;;;;;;;;;;22.00;99.00;;;22.42;61.49;98152.97;4987236;28;120464;-81
2023/07/28 08:32:51;;;;;;;;;;;22.10;98.70;;;22.45;61.40;98151.34;4982833;28;119781;-80
2023/07/28 08:35:17;;;;;;;;;;;22.10;98.70;;;22.48;61.25;98148.50;4977309;28;124132;-80
2023/07/28 08:37:44;;;;;;;;;;;22.10;98.60;;;22.54;61.10;98153.72;4982038;28;123739;-80
2023/07/28 08:40:14;;;;;;;;;;;22.20;98.60;;;22.55;61.29;98155.34;4984687;28;119527;-81
2023/07/28 08:42:44;;;;;;;;;;;22.20;98.50;;;22.59;61.19;98159.72;4973068;28;118758;-80
2023/07/28 08:45:13;;;;;;;;;;;22.10;98.40;;;22.63;61.25;98171.00;4984493;28;124969;-81
2023/07/28 08:47:42;;;;;;;;;;;22.20;98.60;;;22.63;61.48;98168.19;4983939;28;123605;-80
2023/07/28 08:50:08;;;;;;;;;;;22.30;98.60;;;22.64;61.51;98158.50;4971933;28;119646;-79
2023/07/28 08:52:37;;;;;;;;;;;22.30;98.60;;;22.67;61.46;98157.69;4985374;28;116803;-81
2023/07/28 08:55:06;;;;;;;;;;;22.30;98.70;;;22.70;61.38;98162.50;4983659;28;124145;-79
2023/07/28 08:57:33;;;;;;;;;;;22.40;98.80;;;22.77;61.46;98161.69;4979662;28;123349;-79
2023/07/28 09:00:28;;;;;;;;;;;22.40;98.80;;;22.81;61.50;98168.91;4973315;28;119482;-79
2023/07/28 09:02:56;;;;;;;;;;;22.40;98.80;;;22.87;61.25;98161.63;4974493;28;118411;-79
2023/07/28 09:05:33;;;;;;;;;;;22.50;98.70;;;22.90;61.18;98168.44;4985396;28;123325;-79
2023/07/28 09:08:02;;;;;;;;;;;22.50;98.60;;;22.94;60.93;98172.88;4982096;28;123904;-82
2023/07/28 09:10:44;;;;;;;;;;;22.50;98.60;;;22.96;60.76;98168.81;4983119;28;119312;-78
2023/07/28 09:13:15;;;;;;;;;;;22.60;98.40;;;22.97;60.61;98168.47;4983872;28;118019;-79
2023/07/28 09:15:41;;;;;;;;;;;22.60;98.30;;;23.00;60.47;98178.06;4981815;28;124337;-80
2023/07/28 09:18:10;;;;;;;;;;;22.60;98.20;;;23.04;60.72;98176.06;4984023;28;123844;-78
2023/07/28 09:20:41;;;;;;;;;;;22.70;98.40;;;23.03;61.15;98175.25;4984909;28;120501;-80
2023/07/28 09:23:08;;;;;;;;;;;22.60;98.40;;;23.04;61.25;98176.06;4983775;28;119765;-80
2023/07/28 09:25:38;;;;;;;;;;;22.70;98.60;;;23.05;61.17;98172.84;4974258;28;122619;-79
2023/07/28 09:28:04;;;;;;;;;;;22.70;98.60;;;23.09;61.36;98178.44;4979679;28;123592;-79
2023/07/28 09:30:53;;;;;;;;;;;22.70;98.70;;;23.10;61.42;98169.56;4987353;28;120076;-80
2023/07/28 09:33:30;;;;;;;;;;;22.80;98.70;;;23.15;61.33;98171.94;4988680;28;118668;-81
2023/07/28 09:35:57;;;;;;;;;;;22.80;98.80;;;23.22;61.54;98171.09;4986483;28;123616;-79
2023/07/28 09:38:29;;;;;;;;;;;22.80;98.70;;;23.27;61.07;98173.50;4986041;28;124482;-79
2023/07/28 09:40:58;;;;;;;;;;;22.90;98.70;;;23.31;60.96;98174.25;4965925;28;118943;-79
2023/07/28 09:43:26;;;;;;;;;;;22.90;98.70;;;23.35;60.54;98168.63;4969223;28;119031;-79
2023/07/28 09:45:53;;;;;;;;;;;23.00;98.60;;;23.41;60.71;98160.50;4969709;28;123290;-80
2023/07/28 09:48:21;;;;;;;;;;;23.00;98.60;;;23.45;60.37;98159.25;4986036;28;123926;-80
2023/07/28 09:50:53;;;;;;;;;;;23.00;98.40;;;23.45;60.23;98158.44;4985559;28;119908;-80
2023/07/28 09:53:31;;;;;;;;;;;23.00;98.30;;;23.44;60.33;98162.50;4987055;28;118989;-80
2023/07/28 09:55:58;;;;;;;;;;;23.00;98.30;;;23.41;60.48;98160.50;4986205;28;124385;-81
2023/07/28 09:58:28;;;;;;;;;;;23.00;98.30;;;23.42;60.32;98162.09;4970775;28;123845;-79
2023/07/28 10:00:55;;;;;;;;;;;23.00;98.30;;;23.40;60.12;98170.16;4965105;28;119537;-78
2023/07/28 10:03:28;;;;;;;;;;;23.00;98.10;;;23.38;60.01;98157.31;4979672;28;119240;-78
2023/07/28 10:05:54;;;;;;;;;;;23.00;98.10;;;23.38;60.15;98167.78;4969233;28;123498;-79
2023/07/28 10:08:28;;;;;;;;;;;23.00;98.10;;;23.42;60.05;98160.09;4969993;28;123052;-79
2023/07/28 10:10:55;;;;;;;;;;;23.10;98.10;;;23.47;60.07;98164.47;4978077;28;119609;-79
2023/07/28 10:13:22;;;;;;;;;;;23.10;98.10;;;23.51;60.01;98160.44;4988598;28;119192;-79
2023/07/28 10:15:48;;;;;;;;;;;23.10;98.00;;;23.54;59.84;98167.25;4988728;28;124304;-79
2023/07/28 10:18:14;;;;;;;;;;;23.20;97.90;;;23.54;59.73;98170.09;4988535;28;124026;-79
2023/07/28 10:20:49;;;;;;;;;;;23.20;97.70;;;23.54;59.62;98173.69;4984634;28;119135;-79
2023/07/28 10:23:17;;;;;;;;;;;23.20;97.70;;;23.58;59.35;98173.66;4981861;28;119844;-79
2023/07/28 10:25:46;;;;;;;;;;;23.20;97.60;;;23.62;59.48;98177.25;4980852;28;124252;-79
2023/07/28 10:28:38;;;;;;;;;;;23.30;97.60;;;23.65;58.96;98181.28;4984264;28;122955;-78
2023/07/28 10:31:10;;;;;;;;;;;23.30;97.50;;;23.71;58.76;98173.97;4986933;28;119293;-79
2023/07/28 10:33:38;;;;;;;;;;;23.30;97.40;;;23.76;58.81;98188.44;4968904;28;118215;-79
2023/07/28 10:36:11;;;;;;;;;;;23.40;97.30;;;23.78;58.50;98188.84;4985789;28;124912;-79
2023/07/28 10:38:37;;;;;;;;;;;23.40;97.20;;;23.81;58.52;98190.03;4986017;28;124189;-79
2023/07/28 10:41:18;;;;;;;;;;;23.50;97.10;;;23.81;58.21;98190.81;4986064;28;119558;-79
2023/07/28 10:43:46;;;;;;;;;;;23.50;97.00;;;23.85;58.13;98187.16;4977268;28;118695;-78
2023/07/28 10:46:17;;;;;;;;;;;23.50;97.00;;;23.91;58.35;98193.97;4986389;28;125267;-79
2023/07/28 10:48:47;;;;;;;;;;;23.50;96.90;;;23.94;57.91;98185.47;4984506;28;124455;-79
2023/07/28 10:51:24;;;;;;;;;;;23.60;96.90;;;23.98;57.97;98182.59;4984925;28;119279;-79
2023/07/28 10:53:52;;;;;;;;;;;23.60;96.80;;;24.01;57.58;98184.59;4951927;28;117872;-77
2023/07/28 10:56:18;;;;;;;;;;;23.70;96.70;;;24.03;57.40;98179.34;4951827;28;123290;-77
2023/07/28 10:58:46;;;;;;;;;;;23.70;96.60;;;24.07;57.35;98174.44;4985397;28;123489;-79
2023/07/28 11:01:15;;;;;;;;;;;23.70;96.60;;;24.14;57.42;98182.84;4984835;28;120809;-78
2023/07/28 11:03:41;;;;;;;;;;;23.70;96.50;;;24.19;57.34;98187.25;4969963;28;119507;-79
2023/07/28 11:06:13;;;;;;;;;;;23.80;96.50;;;24.25;57.01;98177.88;4985414;28;124279;-78
2023/07/28 11:08:40;;;;;;;;;;;23.90;96.40;;;24.35;56.84;98183.84;4984831;28;123345;-79
2023/07/28 11:11:06;;;;;;;;;;;23.90;96.30;;;24.44;56.50;98175.69;4970958;28;119241;-77
2023/07/28 11:13:35;;;;;;;;;;;24.00;96.30;;;24.52;56.06;98173.59;4976537;28;118700;-79
2023/07/28 11:16:02;;;;;;;;;;;24.00;96.00;;;24.56;55.43;98178.00;4969488;28;123892;-80
2023/07/28 11:18:28;;;;;;;;;;;24.10;95.70;;;24.62;54.80;98190.41;4981487;28;124118;-78
2023/07/28 11:20:59;;;;;;;;;;;24.20;95.20;;;24.66;54.27;98188.38;4981033;28;119294;-79
2023/07/28 11:23:25;;;;;;;;;;;24.20;95.00;;;24.71;54.09;98183.47;4986905;28;117398;-79
2023/07/28 11:26:01;;;;;;;;;;;24.20;94.60;;;24.75;53.72;98179.38;4970006;28;123704;-78
2023/07/28 11:28:28;;;;;;;;;;;24.30;94.50;;;24.79;52.94;98177.28;4984242;28;124005;-76
2023/07/28 11:30:54;;;;;;;;;;;24.30;94.20;;;24.84;53.19;98176.03;4969680;28;118857;-78
2023/07/28 11:33:29;;;;;;;;;;;24.40;94.10;;;24.92;52.71;98180.34;4962708;28;98271;-76